Time;durP1;ratioP1;P1;durP2;ratioP2;P2;SDS_P1;SDS_P2;PMS_P1;PMS_P2;Temp;Humidity;BMP_temperature;BMP_pressure;BME280_temperature;BME280_humidity;BME280_pressure;Samples;Min_cycle;Max_cycle;Signal;HPM_P1;HPM_P2
2022/07/22 00:02:37;;;;;;;14.95;6.32;;;;;;;;;;8397930;28;20048;-88
2022/07/22 00:06:40;;;;;;;10.18;6.72;;;;;;;;;;8397996;28;20492;-87
2022/07/22 00:10:42;;;;;;;9.73;6.65;;;;;;;;;;8397840;28;20060;-87
2022/07/22 00:14:45;;;;;;;11.15;7.18;;;;;;;;;;8397408;28;20094;-88
2022/07/22 00:18:49;;;;;;;12.35;7.30;;;;;;;;;;8397573;28;20056;-87
2022/07/22 00:22:52;;;;;;;12.98;6.70;;;;;;;;;;8397408;28;20468;-88
2022/07/22 00:26:55;;;;;;;11.52;6.25;;;;;;;;;;8397264;28;20508;-87
2022/07/22 00:30:58;;;;;;;9.25;6.78;;;;;;;;;;8397473;28;20032;-88
2022/07/22 00:35:03;;;;;;;12.15;6.95;;;;;;;;;;8397208;28;20071;-87
2022/07/22 00:39:05;;;;;;;11.73;6.68;;;;;;;;;;8387810;28;20045;-87
2022/07/22 00:43:08;;;;;;;12.45;6.18;;;;;;;;;;8382812;28;20064;-87
2022/07/22 00:47:12;;;;;;;11.65;6.70;;;;;;;;;;8386625;28;20047;-89
2022/07/22 00:51:17;;;;;;;12.10;7.10;;;;;;;;;;8367907;28;20041;-88
2022/07/22 00:55:20;;;;;;;10.48;6.57;;;;;;;;;;8363135;28;20084;-88
2022/07/22 00:59:23;;;;;;;11.05;6.80;;;;;;;;;;8390756;28;20055;-89
2022/07/22 01:03:25;;;;;;;11.32;7.20;;;;;;;;;;8389566;28;20048;-88
2022/07/22 01:07:30;;;;;;;10.10;7.05;;;;;;;;;;8387543;28;20122;-88
2022/07/22 01:11:32;;;;;;;12.23;6.90;;;;;;;;;;8384787;28;20087;-88
2022/07/22 01:15:35;;;;;;;9.23;6.68;;;;;;;;;;8377727;28;20548;-88
2022/07/22 01:19:38;;;;;;;14.25;6.93;;;;;;;;;;8383742;28;20037;-88
2022/07/22 01:23:43;;;;;;;13.00;6.82;;;;;;;;;;8388576;28;20055;-92
2022/07/22 01:27:46;;;;;;;12.20;6.53;;;;;;;;;;8382935;28;20447;-90
2022/07/22 01:31:49;;;;;;;11.30;6.32;;;;;;;;;;8396108;28;20045;-89
2022/07/22 01:35:52;;;;;;;9.75;6.07;;;;;;;;;;8396175;28;20048;-88
2022/07/22 01:39:56;;;;;;;10.80;6.35;;;;;;;;;;8396076;28;20481;-88
2022/07/22 01:43:58;;;;;;;12.35;6.40;;;;;;;;;;8387979;28;20051;-88
2022/07/22 01:48:02;;;;;;;11.65;6.55;;;;;;;;;;8395053;28;20418;-89
2022/07/22 01:52:05;;;;;;;13.90;6.20;;;;;;;;;;8386191;28;20049;-88
2022/07/22 01:56:09;;;;;;;13.60;6.60;;;;;;;;;;8363543;28;20171;-88
2022/07/22 02:00:13;;;;;;;11.65;6.47;;;;;;;;;;8365273;28;20443;-88
2022/07/22 02:04:16;;;;;;;12.35;6.18;;;;;;;;;;8394106;28;20041;-88
2022/07/22 02:08:19;;;;;;;12.25;6.63;;;;;;;;;;8382877;28;20158;-88
2022/07/22 02:12:23;;;;;;;17.45;6.43;;;;;;;;;;8391888;28;20049;-88
2022/07/22 02:16:26;;;;;;;12.07;6.25;;;;;;;;;;8401198;28;20454;-87
2022/07/22 02:20:28;;;;;;;12.60;6.22;;;;;;;;;;8401338;28;20127;-88
2022/07/22 02:24:31;;;;;;;12.40;6.22;;;;;;;;;;8401121;28;20062;-88
2022/07/22 02:28:35;;;;;;;9.40;6.10;;;;;;;;;;8401449;28;20525;-88
2022/07/22 02:32:41;;;;;;;11.25;6.15;;;;;;;;;;8400924;28;20072;-88
2022/07/22 02:36:43;;;;;;;12.85;6.13;;;;;;;;;;8400764;28;20049;-88
2022/07/22 02:40:46;;;;;;;8.85;5.90;;;;;;;;;;8400503;28;20044;-88
2022/07/22 02:44:50;;;;;;;8.18;5.82;;;;;;;;;;8400793;28;20045;-88
2022/07/22 02:48:52;;;;;;;9.95;6.90;;;;;;;;;;8400523;28;20046;-88
2022/07/22 02:52:55;;;;;;;9.63;6.28;;;;;;;;;;8400338;28;20472;-88
2022/07/22 02:56:58;;;;;;;14.02;7.60;;;;;;;;;;8400216;28;20495;-88
2022/07/22 03:01:02;;;;;;;20.77;8.88;;;;;;;;;;8400103;28;20051;-88
2022/07/22 03:05:05;;;;;;;11.18;6.00;;;;;;;;;;8400049;28;20475;-89
2022/07/22 03:09:08;;;;;;;9.55;6.47;;;;;;;;;;8399872;28;20057;-88
2022/07/22 03:13:10;;;;;;;10.90;6.60;;;;;;;;;;8399799;28;20044;-88
2022/07/22 03:17:15;;;;;;;12.00;6.55;;;;;;;;;;8399597;28;20122;-88
2022/07/22 03:21:17;;;;;;;12.63;7.65;;;;;;;;;;8400004;28;20548;-88
2022/07/22 03:25:20;;;;;;;17.58;10.75;;;;;;;;;;8398391;28;20044;-88
2022/07/22 03:29:23;;;;;;;19.08;9.65;;;;;;;;;;8399211;28;20075;-88
2022/07/22 03:33:27;;;;;;;18.88;10.13;;;;;;;;;;8399070;28;20044;-89
2022/07/22 03:37:29;;;;;;;17.40;10.00;;;;;;;;;;8398881;28;20044;-88
2022/07/22 03:41:32;;;;;;;13.25;8.82;;;;;;;;;;8398717;28;20118;-88
2022/07/22 03:45:35;;;;;;;14.88;8.85;;;;;;;;;;8398523;28;20052;-88
2022/07/22 03:49:39;;;;;;;15.65;9.30;;;;;;;;;;8398602;28;20040;-88
2022/07/22 03:53:41;;;;;;;14.65;7.88;;;;;;;;;;8398343;28;20064;-88
2022/07/22 03:57:44;;;;;;;13.25;7.93;;;;;;;;;;8398171;28;20057;-88
2022/07/22 04:01:46;;;;;;;14.50;8.32;;;;;;;;;;8398052;28;20052;-88
2022/07/22 04:05:51;;;;;;;13.63;9.10;;;;;;;;;;8397980;28;20534;-88
2022/07/22 04:10:04;;;;;;;16.70;9.10;;;;;;;;;;8397868;28;20068;-88
2022/07/22 04:14:07;;;;;;;28.60;15.38;;;;;;;;;;8396695;28;20386;-89
2022/07/22 04:18:12;;;;;;;21.60;13.10;;;;;;;;;;8397535;28;20048;-88
2022/07/22 04:22:16;;;;;;;19.95;11.35;;;;;;;;;;8397538;28;20047;-88
2022/07/22 04:26:18;;;;;;;23.20;12.02;;;;;;;;;;8397474;28;20048;-88
2022/07/22 04:30:21;;;;;;;28.05;13.13;;;;;;;;;;8397210;28;20045;-88
2022/07/22 04:34:24;;;;;;;22.58;11.52;;;;;;;;;;8397293;28;20480;-88
2022/07/22 04:38:28;;;;;;;20.58;10.65;;;;;;;;;;8397008;28;20044;-87
2022/07/22 04:42:30;;;;;;;19.33;10.73;;;;;;;;;;8396850;28;20064;-88
2022/07/22 04:46:33;;;;;;;19.98;10.52;;;;;;;;;;8395464;28;20045;-88
2022/07/22 04:50:37;;;;;;;16.20;9.48;;;;;;;;;;8384338;28;20060;-87
2022/07/22 04:54:41;;;;;;;13.95;9.85;;;;;;;;;;8383564;28;20049;-88
2022/07/22 04:58:44;;;;;;;16.58;9.50;;;;;;;;;;8385688;28;20477;-90
2022/07/22 05:02:47;;;;;;;14.18;9.75;;;;;;;;;;8378622;28;20044;-87
2022/07/22 05:06:49;;;;;;;13.90;10.55;;;;;;;;;;8391793;28;20123;-87
2022/07/22 05:10:53;;;;;;;15.02;9.65;;;;;;;;;;8396563;28;20495;-88
2022/07/22 05:14:56;;;;;;;16.05;8.07;;;;;;;;;;8396128;28;20098;-88
2022/07/22 05:18:59;;;;;;;14.63;8.88;;;;;;;;;;8396340;28;20052;-88
2022/07/22 05:23:02;;;;;;;8.52;5.45;;;;;;;;;;8396379;28;20385;-87
2022/07/22 05:27:07;;;;;;;10.75;5.55;;;;;;;;;;8396552;28;20558;-87
2022/07/22 05:31:10;;;;;;;13.10;7.72;;;;;;;;;;8396595;28;20067;-87
2022/07/22 05:35:14;;;;;;;10.82;6.35;;;;;;;;;;8395163;28;20124;-86
2022/07/22 05:39:17;;;;;;;10.27;4.90;;;;;;;;;;8395960;28;20102;-87
2022/07/22 05:43:21;;;;;;;12.57;5.80;;;;;;;;;;8395789;28;20056;-89
2022/07/22 05:47:24;;;;;;;8.70;6.22;;;;;;;;;;8396539;28;20048;-86
2022/07/22 05:51:27;;;;;;;12.93;10.27;;;;;;;;;;8402262;28;20045;-86
2022/07/22 05:55:30;;;;;;;12.85;7.43;;;;;;;;;;8402107;28;20072;-85
2022/07/22 05:59:35;;;;;;;7.38;4.78;;;;;;;;;;8401957;28;20044;-86
2022/07/22 06:03:38;;;;;;;9.70;4.57;;;;;;;;;;8399053;28;20063;-87
2022/07/22 06:07:41;;;;;;;10.93;9.52;;;;;;;;;;8399839;28;20040;-85
2022/07/22 06:11:44;;;;;;;7.80;4.15;;;;;;;;;;8400773;28;20051;-85
2022/07/22 06:15:48;;;;;;;9.38;4.80;;;;;;;;;;8401258;28;20657;-85
2022/07/22 06:19:51;;;;;;;9.77;4.75;;;;;;;;;;8401610;28;20123;-84
2022/07/22 06:23:54;;;;;;;9.88;5.82;;;;;;;;;;8401221;28;20036;-85
2022/07/22 06:27:56;;;;;;;6.53;3.65;;;;;;;;;;8401062;28;20048;-85
2022/07/22 06:32:01;;;;;;;9.52;5.53;;;;;;;;;;8400944;28;20044;-85
2022/07/22 06:36:04;;;;;;;7.13;4.35;;;;;;;;;;8401359;28;20108;-84
2022/07/22 06:40:08;;;;;;;8.80;4.10;;;;;;;;;;8400821;28;20138;-84
2022/07/22 06:44:11;;;;;;;7.90;3.70;;;;;;;;;;8400689;28;20049;-84
2022/07/22 06:48:16;;;;;;;7.43;3.75;;;;;;;;;;8400553;28;20040;-84
2022/07/22 06:52:19;;;;;;;7.13;4.20;;;;;;;;;;8400306;28;20051;-84
2022/07/22 06:56:22;;;;;;;7.22;4.20;;;;;;;;;;8400185;28;20044;-82
2022/07/22 07:00:25;;;;;;;6.90;3.85;;;;;;;;;;8399247;28;20395;-84
2022/07/22 07:04:29;;;;;;;7.25;3.88;;;;;;;;;;8400025;28;20044;-82
2022/07/22 07:08:32;;;;;;;7.32;4.15;;;;;;;;;;8399903;28;20068;-83
2022/07/22 07:12:35;;;;;;;16.05;5.18;;;;;;;;;;8399989;28;20053;-83
2022/07/22 07:16:38;;;;;;;10.90;4.82;;;;;;;;;;8399459;28;20408;-83
2022/07/22 07:20:45;;;;;;;10.32;4.25;;;;;;;;;;8399517;28;20064;-83
2022/07/22 07:24:48;;;;;;;9.48;4.50;;;;;;;;;;8399296;28;20048;-82
2022/07/22 07:28:51;;;;;;;11.65;4.15;;;;;;;;;;8399280;28;20537;-83
2022/07/22 07:32:54;;;;;;;9.27;4.57;;;;;;;;;;8399103;28;20123;-83
2022/07/22 07:36:59;;;;;;;8.07;4.20;;;;;;;;;;8398910;28;20582;-82
2022/07/22 07:41:02;;;;;;;13.95;5.78;;;;;;;;;;8398918;28;20053;-83
2022/07/22 07:45:07;;;;;;;11.98;7.63;;;;;;;;;;8398921;28;20044;-82
2022/07/22 07:49:10;;;;;;;12.77;4.38;;;;;;;;;;8398616;28;20051;-82
2022/07/22 07:53:17;;;;;;;7.60;4.25;;;;;;;;;;8398975;28;20439;-83
2022/07/22 07:57:20;;;;;;;7.22;4.05;;;;;;;;;;8398321;28;20396;-82
2022/07/22 08:01:24;;;;;;;8.32;4.60;;;;;;;;;;8398129;28;20045;-83
2022/07/22 08:05:28;;;;;;;14.43;4.60;;;;;;;;;;8398056;28;20044;-82
2022/07/22 08:09:38;;;;;;;11.70;5.38;;;;;;;;;;8397586;28;20043;-83
2022/07/22 08:13:44;;;;;;;9.45;4.88;;;;;;;;;;8396803;28;20043;-82
2022/07/22 08:17:47;;;;;;;9.23;5.25;;;;;;;;;;8397767;28;20044;-83
2022/07/22 08:21:50;;;;;;;11.02;4.75;;;;;;;;;;8397583;28;20045;-82
2022/07/22 08:25:55;;;;;;;10.35;5.22;;;;;;;;;;8397464;28;20044;-83
2022/07/22 08:29:58;;;;;;;11.15;5.55;;;;;;;;;;8398430;28;20051;-83
2022/07/22 08:34:02;;;;;;;10.25;5.47;;;;;;;;;;8397328;28;20094;-82
2022/07/22 08:38:06;;;;;;;12.10;5.72;;;;;;;;;;8397150;28;20275;-82
2022/07/22 08:42:13;;;;;;;10.27;5.57;;;;;;;;;;8396857;28;20037;-83
2022/07/22 08:46:16;;;;;;;10.57;5.85;;;;;;;;;;8396677;28;20040;-82
2022/07/22 08:50:20;;;;;;;11.68;5.28;;;;;;;;;;8396631;28;20048;-82
2022/07/22 08:54:24;;;;;;;10.73;5.63;;;;;;;;;;8382072;28;20067;-82
2022/07/22 08:58:30;;;;;;;10.27;5.68;;;;;;;;;;8366801;28;20057;-83
2022/07/22 09:02:40;;;;;;;7.50;5.30;;;;;;;;;;8385890;28;20564;-82
2022/07/22 09:06:49;;;;;;;11.07;5.30;;;;;;;;;;8391718;28;20056;-82
2022/07/22 09:10:52;;;;;;;12.75;5.82;;;;;;;;;;8384022;28;20514;-83
2022/07/22 09:14:58;;;;;;;10.32;5.10;;;;;;;;;;8391263;28;20045;-82
2022/07/22 09:19:01;;;;;;;10.35;5.50;;;;;;;;;;8377401;28;20067;-82
2022/07/22 09:23:11;;;;;;;11.30;6.28;;;;;;;;;;8392802;28;20079;-83
2022/07/22 09:27:25;;;;;;;9.63;5.85;;;;;;;;;;8382182;28;20062;-83
2022/07/22 09:31:31;;;;;;;10.63;6.10;;;;;;;;;;8398221;28;20123;-83
2022/07/22 09:35:35;;;;;;;8.13;5.45;;;;;;;;;;8386616;28;20496;-82
2022/07/22 09:39:38;;;;;;;14.48;6.20;;;;;;;;;;8375832;28;20729;-82
2022/07/22 09:43:42;;;;;;;12.30;6.15;;;;;;;;;;8385792;28;20411;-84
2022/07/22 09:47:48;;;;;;;11.15;6.22;;;;;;;;;;8383198;28;20492;-83
2022/07/22 09:51:51;;;;;;;9.90;5.93;;;;;;;;;;8396179;28;20040;-82
2022/07/22 09:55:56;;;;;;;13.65;6.75;;;;;;;;;;8397334;28;20498;-82
2022/07/22 10:00:01;;;;;;;10.15;5.93;;;;;;;;;;8378908;28;20067;-82
2022/07/22 10:04:08;;;;;;;13.32;6.97;;;;;;;;;;8382651;28;20583;-82
2022/07/22 10:08:12;;;;;;;13.18;6.47;;;;;;;;;;8382430;28;20508;-81
2022/07/22 10:12:16;;;;;;;11.77;6.60;;;;;;;;;;8389633;28;20049;-82
2022/07/22 10:16:20;;;;;;;12.30;7.10;;;;;;;;;;8386653;28;20061;-82
2022/07/22 10:20:26;;;;;;;11.30;8.23;;;;;;;;;;8399121;28;20078;-82
2022/07/22 10:24:32;;;;;;;17.10;7.28;;;;;;;;;;8391578;28;20056;-82
2022/07/22 10:28:38;;;;;;;14.25;7.30;;;;;;;;;;8385184;28;20055;-84
2022/07/22 10:33:03;;;;;;;13.60;7.57;;;;;;;;;;8401429;28;20143;-82
2022/07/22 10:37:43;;;;;;;15.73;8.02;;;;;;;;;;8359312;28;20045;-82
2022/07/22 10:41:47;;;;;;;11.52;7.85;;;;;;;;;;8378816;28;20041;-82
2022/07/22 10:45:55;;;;;;;12.25;8.05;;;;;;;;;;8395642;28;20044;-82
2022/07/22 10:50:41;;;;;;;16.23;8.77;;;;;;;;;;8381256;28;20057;-81
2022/07/22 10:55:19;;;;;;;13.98;9.05;;;;;;;;;;8357328;28;20131;-83
2022/07/22 10:59:23;;;;;;;15.88;8.18;;;;;;;;;;8235570;28;20053;-82
2022/07/22 11:03:27;;;;;;;13.63;8.15;;;;;;;;;;8227196;28;20054;-82
2022/07/22 11:07:34;;;;;;;15.75;7.93;;;;;;;;;;8250356;28;20061;-82
2022/07/22 11:11:50;;;;;;;14.82;7.97;;;;;;;;;;8250577;28;20813;-82
2022/07/22 11:16:00;;;;;;;16.25;8.65;;;;;;;;;;8246345;28;20514;-82
2022/07/22 11:20:06;;;;;;;12.30;8.13;;;;;;;;;;8260234;28;20050;-81
2022/07/22 11:24:10;;;;;;;12.30;7.65;;;;;;;;;;8254994;28;20058;-82
2022/07/22 11:28:16;;;;;;;14.57;7.97;;;;;;;;;;8270641;28;20071;-81
2022/07/22 11:32:20;;;;;;;15.60;8.38;;;;;;;;;;8337919;28;20041;-83
2022/07/22 11:36:23;;;;;;;13.18;8.90;;;;;;;;;;8362685;28;20053;-81
2022/07/22 11:40:35;;;;;;;14.90;8.57;;;;;;;;;;8329139;28;20065;-81
2022/07/22 11:44:42;;;;;;;12.20;8.65;;;;;;;;;;8344182;28;20048;-82
2022/07/22 11:48:46;;;;;;;14.65;8.95;;;;;;;;;;8337038;28;20505;-81
2022/07/22 11:53:03;;;;;;;13.40;8.88;;;;;;;;;;8332367;28;20045;-81
2022/07/22 11:57:08;;;;;;;14.43;8.77;;;;;;;;;;8355610;28;20099;-81
2022/07/22 12:01:17;;;;;;;14.07;7.93;;;;;;;;;;8369935;28;20048;-82
2022/07/22 12:05:21;;;;;;;13.68;7.88;;;;;;;;;;8336895;28;20140;-82
2022/07/22 12:09:28;;;;;;;10.80;8.10;;;;;;;;;;8339236;28;20067;-82
2022/07/22 12:13:36;;;;;;;11.15;8.43;;;;;;;;;;8337054;28;20041;-81
2022/07/22 12:17:52;;;;;;;10.35;7.72;;;;;;;;;;8338286;28;20044;-82
2022/07/22 12:22:04;;;;;;;11.43;7.45;;;;;;;;;;8333487;28;20132;-81
2022/07/22 12:26:47;;;;;;;12.57;7.72;;;;;;;;;;8334336;28;20041;-81
2022/07/22 12:31:14;;;;;;;20.08;7.63;;;;;;;;;;8287706;28;20051;-82
2022/07/22 12:35:37;;;;;;;;;;;;;;;;;;8359794;28;20412;-82
2022/07/22 12:39:59;;;;;;;11.27;8.20;;;;;;;;;;8379125;28;19920;-82
2022/07/22 12:44:03;;;;;;;11.52;7.75;;;;;;;;;;8364023;28;20052;-82
2022/07/22 12:48:17;;;;;;;11.73;7.97;;;;;;;;;;8363994;28;20068;-83
2022/07/22 12:52:34;;;;;;;9.82;7.88;;;;;;;;;;8389415;28;20076;-82
2022/07/22 12:57:03;;;;;;;11.70;7.60;;;;;;;;;;8336601;28;20051;-83
2022/07/22 13:01:30;;;;;;;15.25;7.97;;;;;;;;;;8372870;28;20306;-82
2022/07/22 13:05:56;;;;;;;11.55;7.78;;;;;;;;;;8361858;28;20408;-81
2022/07/22 13:10:25;;;;;;;13.43;8.38;;;;;;;;;;8358233;28;20052;-81
2022/07/22 13:14:35;;;;;;;11.43;8.20;;;;;;;;;;8338566;28;20065;-82
2022/07/22 13:18:58;;;;;;;12.38;7.43;;;;;;;;;;8390274;28;20481;-82
2022/07/22 13:23:14;;;;;;;12.23;7.20;;;;;;;;;;8377360;28;20549;-81
2022/07/22 13:27:44;;;;;;;12.15;7.13;;;;;;;;;;8364404;28;20551;-81
2022/07/22 13:32:02;;;;;;;10.45;7.18;;;;;;;;;;8377517;28;20571;-81
2022/07/22 13:36:19;;;;;;;9.35;7.22;;;;;;;;;;8374576;28;20060;-81
2022/07/22 13:40:38;;;;;;;10.15;7.00;;;;;;;;;;8376284;28;20485;-81
2022/07/22 13:45:15;;;;;;;14.15;7.65;;;;;;;;;;8390652;28;20432;-81
2022/07/22 13:49:28;;;;;;;8.50;7.05;;;;;;;;;;8378244;28;20048;-82
2022/07/22 13:53:43;;;;;;;11.57;7.53;;;;;;;;;;8376739;28;20493;-82
2022/07/22 13:57:58;;;;;;;9.55;6.85;;;;;;;;;;8377050;28;20048;-81
2022/07/22 14:02:37;;;;;;;9.75;6.90;;;;;;;;;;8370110;28;20049;-81
2022/07/22 14:07:00;;;;;;;10.38;6.80;;;;;;;;;;8390537;28;20587;-81
2022/07/22 14:25:17;;;;;;;10.48;7.93;;;;;;;;;;8370565;28;20135;-81
2022/07/22 14:29:33;;;;;;;14.85;7.85;;;;;;;;;;8385249;28;20389;-81
2022/07/22 14:33:56;;;;;;;10.93;7.80;;;;;;;;;;8382246;28;20052;-81
2022/07/22 14:38:09;;;;;;;9.82;7.47;;;;;;;;;;8386428;28;20049;-82
2022/07/22 14:42:16;;;;;;;10.73;7.95;;;;;;;;;;8367378;28;20590;-82
2022/07/22 14:46:19;;;;;;;11.30;7.32;;;;;;;;;;8371790;28;20073;-83
2022/07/22 14:50:22;;;;;;;11.23;7.97;;;;;;;;;;8375518;28;20052;-87
2022/07/22 14:54:28;;;;;;;11.07;7.60;;;;;;;;;;8377339;28;20053;-83
2022/07/22 14:58:31;;;;;;;10.30;7.50;;;;;;;;;;8375241;28;20048;-85
2022/07/22 15:02:38;;;;;;;12.52;7.47;;;;;;;;;;8379067;28;20037;-83
2022/07/22 15:06:42;;;;;;;10.13;7.72;;;;;;;;;;8378799;28;20489;-82
2022/07/22 15:10:49;;;;;;;11.73;7.80;;;;;;;;;;8392637;28;20064;-83
2022/07/22 15:14:54;;;;;;;12.40;7.75;;;;;;;;;;8389395;28;20049;-84
2022/07/22 15:18:57;;;;;;;13.35;7.80;;;;;;;;;;8378558;28;20098;-83
2022/07/22 15:23:01;;;;;;;12.07;7.90;;;;;;;;;;8370953;28;20037;-87
2022/07/22 15:27:07;;;;;;;11.35;7.80;;;;;;;;;;8369663;28;20037;-83
2022/07/22 15:31:15;;;;;;;11.90;7.68;;;;;;;;;;8373584;28;20036;-84
2022/07/22 15:35:18;;;;;;;11.60;8.25;;;;;;;;;;8394430;28;20067;-83
2022/07/22 15:39:22;;;;;;;9.00;7.60;;;;;;;;;;8382575;28;20405;-83
2022/07/22 15:43:27;;;;;;;9.55;7.68;;;;;;;;;;8373462;28;20110;-83
2022/07/22 15:47:31;;;;;;;15.27;8.30;;;;;;;;;;8365246;28;20468;-84
2022/07/22 15:51:35;;;;;;;11.23;7.75;;;;;;;;;;8372569;28;20119;-83
2022/07/22 15:55:42;;;;;;;12.00;8.13;;;;;;;;;;8368321;28;20378;-83
2022/07/22 15:59:49;;;;;;;10.38;8.48;;;;;;;;;;8386719;28;20041;-83
2022/07/22 16:03:53;;;;;;;12.65;7.82;;;;;;;;;;8386310;28;20052;-84
2022/07/22 16:07:59;;;;;;;11.65;8.57;;;;;;;;;;8366080;28;20497;-83
2022/07/22 16:12:07;;;;;;;11.43;8.02;;;;;;;;;;8371858;28;20458;-85
2022/07/22 16:16:12;;;;;;;12.38;8.63;;;;;;;;;;8392383;28;20052;-83
2022/07/22 16:20:17;;;;;;;16.83;9.10;;;;;;;;;;8398295;28;20056;-82
2022/07/22 16:24:20;;;;;;;22.40;10.18;;;;;;;;;;8397521;28;20488;-83
2022/07/22 16:28:25;;;;;;;12.45;9.48;;;;;;;;;;8397659;28;20051;-83
2022/07/22 16:32:30;;;;;;;12.25;10.23;;;;;;;;;;8397322;28;20048;-82
2022/07/22 16:36:36;;;;;;;10.85;8.88;;;;;;;;;;8397311;28;20041;-82
2022/07/22 16:40:39;;;;;;;12.80;9.65;;;;;;;;;;8397319;28;20055;-81
2022/07/22 16:44:43;;;;;;;14.00;10.30;;;;;;;;;;8391925;28;20049;-83
2022/07/22 16:48:47;;;;;;;16.63;11.02;;;;;;;;;;8373942;28;20115;-81
2022/07/22 16:52:52;;;;;;;17.75;10.48;;;;;;;;;;8370955;28;20067;-83
2022/07/22 16:56:57;;;;;;;16.92;10.50;;;;;;;;;;8367341;28;20047;-82
2022/07/22 17:01:03;;;;;;;17.80;10.88;;;;;;;;;;8353768;28;20090;-83
2022/07/22 17:05:11;;;;;;;12.27;9.65;;;;;;;;;;8385456;28;20045;-82
2022/07/22 17:09:17;;;;;;;16.30;10.00;;;;;;;;;;8384800;28;20477;-82
2022/07/22 17:13:21;;;;;;;11.88;9.43;;;;;;;;;;8368404;28;20053;-81
2022/07/22 17:17:24;;;;;;;12.68;9.30;;;;;;;;;;8363975;28;20107;-83
2022/07/22 17:21:31;;;;;;;15.93;9.93;;;;;;;;;;8366780;28;20048;-81
2022/07/22 17:25:35;;;;;;;13.70;9.85;;;;;;;;;;8366974;28;20052;-82
2022/07/22 17:29:38;;;;;;;13.02;10.15;;;;;;;;;;8371315;28;20431;-84
2022/07/22 17:33:41;;;;;;;19.55;12.80;;;;;;;;;;8381021;28;20102;-82
2022/07/22 17:37:47;;;;;;;34.33;21.10;;;;;;;;;;8391057;28;20493;-85
2022/07/22 17:41:50;;;;;;;37.28;23.80;;;;;;;;;;8391237;28;20055;-83
2022/07/22 17:45:53;;;;;;;30.88;20.23;;;;;;;;;;8395377;28;20056;-86
2022/07/22 17:50:04;;;;;;;34.25;18.98;;;;;;;;;;8389642;28;20109;-85
2022/07/22 17:54:09;;;;;;;26.00;16.67;;;;;;;;;;8384686;28;20459;-85
2022/07/22 17:58:13;;;;;;;20.85;15.30;;;;;;;;;;8392594;28;20439;-83
2022/07/22 18:02:16;;;;;;;20.83;15.02;;;;;;;;;;8390296;28;20052;-82
2022/07/22 18:06:20;;;;;;;20.52;13.95;;;;;;;;;;8377797;28;20053;-84
2022/07/22 18:10:24;;;;;;;16.27;14.25;;;;;;;;;;8388075;28;20132;-82
2022/07/22 18:14:28;;;;;;;18.52;13.73;;;;;;;;;;8402163;28;20396;-84
2022/07/22 18:18:31;;;;;;;16.45;14.30;;;;;;;;;;8392146;28;20044;-84
2022/07/22 18:22:35;;;;;;;18.83;15.18;;;;;;;;;;8391727;28;20524;-84
2022/07/22 18:26:39;;;;;;;22.52;15.20;;;;;;;;;;8392034;28;20083;-93
2022/07/22 18:30:43;;;;;;;17.10;14.55;;;;;;;;;;8420345;28;20047;-90
2022/07/22 18:34:45;;;;;;;17.58;14.45;;;;;;;;;;8393234;28;20403;-89
2022/07/22 18:38:49;;;;;;;21.13;16.48;;;;;;;;;;8402492;28;20055;-88
2022/07/22 18:42:54;;;;;;;22.75;16.38;;;;;;;;;;8388767;28;20444;-85
2022/07/22 18:46:58;;;;;;;27.80;18.95;;;;;;;;;;8395904;28;20059;-85
2022/07/22 18:51:02;;;;;;;122.85;54.03;;;;;;;;;;8411137;28;20071;-85
2022/07/22 18:55:06;;;;;;;113.55;51.83;;;;;;;;;;8396565;28;20400;-85
2022/07/22 18:59:11;;;;;;;65.90;33.63;;;;;;;;;;8369506;28;20064;-85
2022/07/22 19:03:15;;;;;;;64.47;36.70;;;;;;;;;;8414399;28;20048;-85
2022/07/22 19:07:18;;;;;;;27.60;18.73;;;;;;;;;;8401233;28;20055;-85
2022/07/22 19:11:35;;;;;;;21.58;16.90;;;;;;;;;;8381549;28;20041;-85
2022/07/22 19:16:08;;;;;;;23.85;18.27;;;;;;;;;;8390370;28;20079;-85
2022/07/22 19:20:15;;;;;;;23.08;17.48;;;;;;;;;;8371867;28;20041;-85
2022/07/22 19:24:22;;;;;;;22.70;17.85;;;;;;;;;;8366751;28;20165;-86
2022/07/22 19:28:31;;;;;;;22.15;18.13;;;;;;;;;;8388674;28;20127;-85
2022/07/22 19:32:47;;;;;;;23.58;16.63;;;;;;;;;;8370889;28;20044;-86
2022/07/22 19:36:53;;;;;;;23.15;17.02;;;;;;;;;;8385067;28;20056;-85
2022/07/22 19:40:56;;;;;;;34.72;23.42;;;;;;;;;;8381086;28;20393;-86
2022/07/22 19:45:02;;;;;;;34.13;26.80;;;;;;;;;;8380476;28;20102;-85
2022/07/22 19:49:13;;;;;;;30.52;24.08;;;;;;;;;;8387641;28;20037;-85
2022/07/22 19:53:27;;;;;;;;;;;;;;;;;;8398671;28;20120;-85
2022/07/22 19:57:38;;;;;;;24.98;20.10;;;;;;;;;;8398761;28;19920;-86
2022/07/22 20:02:05;;;;;;;22.00;19.13;;;;;;;;;;8398311;28;20072;-85
2022/07/22 20:06:16;;;;;;;23.58;18.83;;;;;;;;;;8397302;28;20443;-86
2022/07/22 20:10:21;;;;;;;23.88;18.92;;;;;;;;;;8387561;28;20098;-85
2022/07/22 20:14:33;;;;;;;20.77;17.80;;;;;;;;;;8397712;28;20056;-86
2022/07/22 20:18:44;;;;;;;23.98;18.83;;;;;;;;;;8397860;28;20071;-86
2022/07/22 20:22:51;;;;;;;22.52;17.70;;;;;;;;;;8397866;28;20048;-86
2022/07/22 20:26:59;;;;;;;22.63;18.52;;;;;;;;;;8393899;28;20560;-86
2022/07/22 20:31:05;;;;;;;22.80;17.63;;;;;;;;;;8397490;28;20370;-86
2022/07/22 20:35:10;;;;;;;22.40;17.95;;;;;;;;;;8383015;28;20070;-86
2022/07/22 20:39:15;;;;;;;20.30;17.02;;;;;;;;;;8397290;28;20037;-85
2022/07/22 20:43:18;;;;;;;23.60;17.77;;;;;;;;;;8397920;28;20049;-86
2022/07/22 20:47:22;;;;;;;21.23;16.90;;;;;;;;;;8397005;28;20056;-86
2022/07/22 20:51:27;;;;;;;22.00;17.48;;;;;;;;;;8396903;28;20052;-86
2022/07/22 20:55:32;;;;;;;19.58;17.08;;;;;;;;;;8396707;28;20068;-86
2022/07/22 20:59:35;;;;;;;21.05;17.30;;;;;;;;;;8396704;28;20497;-86
2022/07/22 21:03:39;;;;;;;21.65;17.17;;;;;;;;;;8396703;28;20059;-86
2022/07/22 21:07:43;;;;;;;21.58;17.13;;;;;;;;;;8396479;28;20123;-86
2022/07/22 21:11:47;;;;;;;22.15;17.65;;;;;;;;;;8396618;28;20049;-86
2022/07/22 21:15:52;;;;;;;21.60;17.00;;;;;;;;;;8396313;28;20382;-86
2022/07/22 21:19:55;;;;;;;22.65;17.92;;;;;;;;;;8395530;28;20131;-86
2022/07/22 21:23:58;;;;;;;23.42;18.13;;;;;;;;;;8396303;28;20476;-86
2022/07/22 21:28:05;;;;;;;23.88;19.05;;;;;;;;;;8396119;28;20489;-86
2022/07/22 21:32:09;;;;;;;23.17;18.00;;;;;;;;;;8396208;28;20090;-86
2022/07/22 21:36:11;;;;;;;20.85;17.27;;;;;;;;;;8396258;28;20036;-86
2022/07/22 21:40:14;;;;;;;23.52;18.52;;;;;;;;;;8396051;28;20044;-86
2022/07/22 21:44:19;;;;;;;23.67;18.92;;;;;;;;;;8395813;28;20561;-86
2022/07/22 21:48:22;;;;;;;21.77;17.75;;;;;;;;;;8396027;28;20154;-86
2022/07/22 21:52:25;;;;;;;47.08;33.33;;;;;;;;;;8395910;28;20052;-86
2022/07/22 22:00:51;;;;;;;39.75;27.25;;;;;;;;;;8395819;28;20396;-85
2022/07/22 22:04:55;;;;;;;39.45;27.55;;;;;;;;;;8393206;28;20518;-86
2022/07/22 22:08:59;;;;;;;33.03;25.02;;;;;;;;;;8393027;28;20543;-86
2022/07/22 22:13:02;;;;;;;32.45;22.63;;;;;;;;;;8387921;28;20119;-90
2022/07/22 22:17:07;;;;;;;29.42;21.80;;;;;;;;;;8387166;28;20056;-86
2022/07/22 22:21:11;;;;;;;31.48;23.05;;;;;;;;;;8389635;28;20045;-84
2022/07/22 22:25:14;;;;;;;31.90;21.63;;;;;;;;;;8393194;28;20036;-85
2022/07/22 22:29:17;;;;;;;37.60;24.77;;;;;;;;;;8392044;28;20049;-86
2022/07/22 22:33:21;;;;;;;49.17;28.48;;;;;;;;;;8394313;28;20154;-86
2022/07/22 22:37:24;;;;;;;36.03;22.58;;;;;;;;;;8390582;28;20094;-87
2022/07/22 22:41:26;;;;;;;25.13;18.73;;;;;;;;;;8395758;28;20083;-85
2022/07/22 22:45:29;;;;;;;25.52;18.52;;;;;;;;;;8399133;28;20154;-85
2022/07/22 22:49:33;;;;;;;26.48;18.55;;;;;;;;;;8400419;28;20067;-86
2022/07/22 22:53:42;;;;;;;21.55;18.52;;;;;;;;;;8393649;28;20075;-86
2022/07/22 22:57:46;;;;;;;23.75;17.65;;;;;;;;;;8393905;28;20075;-85
2022/07/22 23:01:48;;;;;;;22.15;17.75;;;;;;;;;;8387895;28;20056;-85
2022/07/22 23:05:53;;;;;;;20.65;16.65;;;;;;;;;;8395283;28;20095;-83
2022/07/22 23:09:55;;;;;;;21.75;17.42;;;;;;;;;;8393522;28;20505;-84
2022/07/22 23:13:58;;;;;;;22.70;17.20;;;;;;;;;;8382511;28;20405;-84
2022/07/22 23:18:01;;;;;;;21.80;17.55;;;;;;;;;;8390427;28;20040;-85
2022/07/22 23:22:05;;;;;;;22.65;16.13;;;;;;;;;;8393129;28;20195;-84
2022/07/22 23:26:08;;;;;;;21.52;17.30;;;;;;;;;;8394859;28;20115;-84
2022/07/22 23:30:12;;;;;;;22.20;17.98;;;;;;;;;;8395688;28;20051;-85
2022/07/22 23:34:15;;;;;;;22.40;17.70;;;;;;;;;;8391572;28;20609;-85
2022/07/22 23:38:19;;;;;;;22.02;17.30;;;;;;;;;;8398403;28;20389;-84
2022/07/22 23:42:22;;;;;;;21.17;17.95;;;;;;;;;;8390864;28;20045;-88
2022/07/22 23:46:25;;;;;;;24.23;17.25;;;;;;;;;;8394308;28;20040;-83
2022/07/22 23:50:30;;;;;;;23.75;17.85;;;;;;;;;;8396099;28;20044;-83
2022/07/22 23:54:37;;;;;;;22.38;17.73;;;;;;;;;;8384933;28;20094;-83
2022/07/22 23:58:39;;;;;;;21.15;15.68;;;;;;;;;;8385097;28;20040;-84
